sensor_id;sensor_type;location;lat;lon;timestamp;P1;durP1;ratioP1;P2;durP2;ratioP2
62679;SDS011;68213;40.528;44.712;2023-04-24T00:00:42;8.82;;;3.97;;
62679;SDS011;68213;40.528;44.712;2023-04-24T00:01:45;7.68;;;4.22;;
62679;SDS011;68213;40.528;44.712;2023-04-24T00:02:45;15.35;;;4.47;;
62679;SDS011;68213;40.528;44.712;2023-04-24T00:03:47;12.20;;;4.45;;
62679;SDS011;68213;40.528;44.712;2023-04-24T00:04:49;13.73;;;4.38;;
62679;SDS011;68213;40.528;44.712;2023-04-24T00:05:49;10.32;;;6.55;;
62679;SDS011;68213;40.528;44.712;2023-04-24T00:06:51;11.63;;;4.90;;
62679;SDS011;68213;40.528;44.712;2023-04-24T00:07:57;9.45;;;4.40;;
62679;SDS011;68213;40.528;44.712;2023-04-24T00:08:57;12.13;;;4.75;;
62679;SDS011;68213;40.528;44.712;2023-04-24T00:10:00;8.63;;;5.60;;
62679;SDS011;68213;40.528;44.712;2023-04-24T00:11:00;25.42;;;13.25;;
62679;SDS011;68213;40.528;44.712;2023-04-24T00:12:01;26.27;;;15.93;;
62679;SDS011;68213;40.528;44.712;2023-04-24T00:13:04;16.08;;;8.48;;
62679;SDS011;68213;40.528;44.712;2023-04-24T00:14:07;9.63;;;3.85;;
62679;SDS011;68213;40.528;44.712;2023-04-24T00:15:08;10.30;;;4.43;;
62679;SDS011;68213;40.528;44.712;2023-04-24T00:16:09;9.07;;;4.28;;
62679;SDS011;68213;40.528;44.712;2023-04-24T00:17:10;11.73;;;4.80;;
62679;SDS011;68213;40.528;44.712;2023-04-24T00:18:10;11.07;;;5.15;;
62679;SDS011;68213;40.528;44.712;2023-04-24T00:19:11;12.45;;;4.47;;
62679;SDS011;68213;40.528;44.712;2023-04-24T00:20:12;8.52;;;4.32;;
62679;SDS011;68213;40.528;44.712;2023-04-24T00:21:15;6.15;;;4.18;;
62679;SDS011;68213;40.528;44.712;2023-04-24T00:22:17;6.80;;;4.10;;
62679;SDS011;68213;40.528;44.712;2023-04-24T00:23:20;15.32;;;5.25;;
62679;SDS011;68213;40.528;44.712;2023-04-24T00:24:24;11.25;;;4.40;;
62679;SDS011;68213;40.528;44.712;2023-04-24T00:25:24;10.10;;;4.30;;
62679;SDS011;68213;40.528;44.712;2023-04-24T00:26:25;9.43;;;4.10;;
62679;SDS011;68213;40.528;44.712;2023-04-24T00:27:26;10.77;;;5.18;;
62679;SDS011;68213;40.528;44.712;2023-04-24T00:28:27;9.93;;;4.65;;
62679;SDS011;68213;40.528;44.712;2023-04-24T00:29:27;13.27;;;4.28;;
62679;SDS011;68213;40.528;44.712;2023-04-24T00:30:28;11.82;;;4.47;;
62679;SDS011;68213;40.528;44.712;2023-04-24T00:31:29;7.55;;;4.60;;
62679;SDS011;68213;40.528;44.712;2023-04-24T00:33:41;7.95;;;3.85;;
62679;SDS011;68213;40.528;44.712;2023-04-24T00:34:42;9.43;;;4.43;;
62679;SDS011;68213;40.528;44.712;2023-04-24T00:35:43;9.43;;;4.32;;
62679;SDS011;68213;40.528;44.712;2023-04-24T00:36:44;10.95;;;4.18;;
62679;SDS011;68213;40.528;44.712;2023-04-24T00:37:44;7.10;;;3.80;;
62679;SDS011;68213;40.528;44.712;2023-04-24T00:38:45;7.53;;;4.30;;
62679;SDS011;68213;40.528;44.712;2023-04-24T00:39:46;10.88;;;3.92;;
62679;SDS011;68213;40.528;44.712;2023-04-24T00:40:47;7.47;;;3.50;;
62679;SDS011;68213;40.528;44.712;2023-04-24T00:41:50;8.98;;;3.47;;
62679;SDS011;68213;40.528;44.712;2023-04-24T00:42:51;8.18;;;3.88;;
62679;SDS011;68213;40.528;44.712;2023-04-24T00:43:52;11.23;;;3.95;;
62679;SDS011;68213;40.528;44.712;2023-04-24T00:44:53;7.65;;;3.60;;
62679;SDS011;68213;40.528;44.712;2023-04-24T00:45:54;8.55;;;3.67;;
62679;SDS011;68213;40.528;44.712;2023-04-24T00:46:55;10.65;;;3.38;;
62679;SDS011;68213;40.528;44.712;2023-04-24T00:47:55;12.93;;;3.50;;
62679;SDS011;68213;40.528;44.712;2023-04-24T00:48:57;7.90;;;3.38;;
62679;SDS011;68213;40.528;44.712;2023-04-24T00:50:03;6.93;;;3.80;;
62679;SDS011;68213;40.528;44.712;2023-04-24T00:51:05;8.35;;;3.75;;
62679;SDS011;68213;40.528;44.712;2023-04-24T00:52:06;7.40;;;3.60;;
62679;SDS011;68213;40.528;44.712;2023-04-24T00:53:07;11.38;;;4.03;;
62679;SDS011;68213;40.528;44.712;2023-04-24T00:54:08;11.38;;;3.90;;
62679;SDS011;68213;40.528;44.712;2023-04-24T00:55:09;9.55;;;3.80;;
62679;SDS011;68213;40.528;44.712;2023-04-24T00:56:10;11.25;;;3.90;;
62679;SDS011;68213;40.528;44.712;2023-04-24T00:57:12;8.57;;;3.70;;
62679;SDS011;68213;40.528;44.712;2023-04-24T00:58:15;8.10;;;3.88;;
62679;SDS011;68213;40.528;44.712;2023-04-24T00:59:16;6.63;;;3.80;;
62679;SDS011;68213;40.528;44.712;2023-04-24T01:00:20;29.15;;;17.42;;
62679;SDS011;68213;40.528;44.712;2023-04-24T01:01:21;16.40;;;7.80;;
62679;SDS011;68213;40.528;44.712;2023-04-24T01:02:22;10.63;;;3.78;;
62679;SDS011;68213;40.528;44.712;2023-04-24T01:03:25;7.70;;;3.47;;
62679;SDS011;68213;40.528;44.712;2023-04-24T01:04:29;6.15;;;3.17;;
62679;SDS011;68213;40.528;44.712;2023-04-24T01:05:30;8.88;;;3.55;;
62679;SDS011;68213;40.528;44.712;2023-04-24T01:06:30;9.23;;;3.53;;
62679;SDS011;68213;40.528;44.712;2023-04-24T01:07:32;6.55;;;3.03;;
62679;SDS011;68213;40.528;44.712;2023-04-24T01:08:33;11.25;;;3.20;;
62679;SDS011;68213;40.528;44.712;2023-04-24T01:09:36;6.40;;;3.28;;
62679;SDS011;68213;40.528;44.712;2023-04-24T01:10:41;9.07;;;2.97;;
62679;SDS011;68213;40.528;44.712;2023-04-24T01:11:41;12.15;;;3.45;;
62679;SDS011;68213;40.528;44.712;2023-04-24T01:12:43;10.98;;;3.20;;
62679;SDS011;68213;40.528;44.712;2023-04-24T01:13:44;10.50;;;2.80;;
62679;SDS011;68213;40.528;44.712;2023-04-24T01:14:45;10.20;;;3.13;;
62679;SDS011;68213;40.528;44.712;2023-04-24T01:15:46;7.53;;;3.35;;
62679;SDS011;68213;40.528;44.712;2023-04-24T01:16:48;9.63;;;3.38;;
62679;SDS011;68213;40.528;44.712;2023-04-24T01:17:48;8.68;;;3.33;;
62679;SDS011;68213;40.528;44.712;2023-04-24T01:18:50;6.85;;;3.15;;
62679;SDS011;68213;40.528;44.712;2023-04-24T01:19:51;9.38;;;3.30;;
62679;SDS011;68213;40.528;44.712;2023-04-24T01:20:55;13.25;;;4.18;;
62679;SDS011;68213;40.528;44.712;2023-04-24T01:21:58;7.25;;;3.25;;
62679;SDS011;68213;40.528;44.712;2023-04-24T01:23:02;8.60;;;3.10;;
62679;SDS011;68213;40.528;44.712;2023-04-24T01:24:03;8.25;;;4.07;;
62679;SDS011;68213;40.528;44.712;2023-04-24T01:25:05;9.45;;;3.45;;
62679;SDS011;68213;40.528;44.712;2023-04-24T01:26:06;6.78;;;3.47;;
62679;SDS011;68213;40.528;44.712;2023-04-24T01:27:08;9.10;;;3.72;;
62679;SDS011;68213;40.528;44.712;2023-04-24T01:28:10;8.25;;;3.80;;
62679;SDS011;68213;40.528;44.712;2023-04-24T01:29:11;10.18;;;3.30;;
62679;SDS011;68213;40.528;44.712;2023-04-24T01:30:12;9.65;;;3.97;;
62679;SDS011;68213;40.528;44.712;2023-04-24T01:31:14;15.10;;;3.15;;
62679;SDS011;68213;40.528;44.712;2023-04-24T01:32:15;7.22;;;3.13;;
62679;SDS011;68213;40.528;44.712;2023-04-24T01:33:16;11.30;;;3.30;;
62679;SDS011;68213;40.528;44.712;2023-04-24T01:34:17;10.02;;;3.42;;
62679;SDS011;68213;40.528;44.712;2023-04-24T01:35:19;6.15;;;3.35;;
62679;SDS011;68213;40.528;44.712;2023-04-24T01:36:20;7.20;;;3.47;;
62679;SDS011;68213;40.528;44.712;2023-04-24T01:37:22;9.55;;;3.42;;
62679;SDS011;68213;40.528;44.712;2023-04-24T01:38:23;13.18;;;3.58;;
62679;SDS011;68213;40.528;44.712;2023-04-24T01:39:24;11.40;;;3.88;;
62679;SDS011;68213;40.528;44.712;2023-04-24T01:40:25;5.55;;;3.05;;
62679;SDS011;68213;40.528;44.712;2023-04-24T01:41:26;13.38;;;3.40;;
62679;SDS011;68213;40.528;44.712;2023-04-24T01:42:27;10.50;;;3.60;;
62679;SDS011;68213;40.528;44.712;2023-04-24T01:43:29;15.57;;;3.58;;
62679;SDS011;68213;40.528;44.712;2023-04-24T01:44:30;9.25;;;3.58;;
62679;SDS011;68213;40.528;44.712;2023-04-24T01:45:31;13.85;;;3.60;;
62679;SDS011;68213;40.528;44.712;2023-04-24T01:46:31;10.32;;;4.68;;
62679;SDS011;68213;40.528;44.712;2023-04-24T01:47:34;9.65;;;3.65;;
62679;SDS011;68213;40.528;44.712;2023-04-24T01:48:35;8.23;;;3.70;;
62679;SDS011;68213;40.528;44.712;2023-04-24T01:49:37;11.50;;;3.90;;
62679;SDS011;68213;40.528;44.712;2023-04-24T01:50:38;9.38;;;3.90;;
62679;SDS011;68213;40.528;44.712;2023-04-24T01:51:39;8.50;;;3.90;;
62679;SDS011;68213;40.528;44.712;2023-04-24T01:52:40;7.60;;;3.70;;
62679;SDS011;68213;40.528;44.712;2023-04-24T01:53:41;12.07;;;3.60;;
62679;SDS011;68213;40.528;44.712;2023-04-24T01:54:41;9.20;;;3.58;;
62679;SDS011;68213;40.528;44.712;2023-04-24T01:55:42;6.32;;;3.47;;
62679;SDS011;68213;40.528;44.712;2023-04-24T01:56:43;10.50;;;3.78;;
62679;SDS011;68213;40.528;44.712;2023-04-24T01:57:45;9.82;;;3.72;;
62679;SDS011;68213;40.528;44.712;2023-04-24T01:58:45;7.22;;;3.22;;
62679;SDS011;68213;40.528;44.712;2023-04-24T01:59:50;10.18;;;4.10;;
62679;SDS011;68213;40.528;44.712;2023-04-24T02:00:51;7.63;;;3.47;;
62679;SDS011;68213;40.528;44.712;2023-04-24T02:01:55;9.30;;;3.88;;
62679;SDS011;68213;40.528;44.712;2023-04-24T02:02:55;10.95;;;3.88;;
62679;SDS011;68213;40.528;44.712;2023-04-24T02:03:56;9.02;;;3.47;;
62679;SDS011;68213;40.528;44.712;2023-04-24T02:04:57;9.93;;;3.17;;
62679;SDS011;68213;40.528;44.712;2023-04-24T02:05:57;8.82;;;3.50;;
62679;SDS011;68213;40.528;44.712;2023-04-24T02:06:58;12.98;;;3.10;;
62679;SDS011;68213;40.528;44.712;2023-04-24T02:07:59;9.77;;;3.60;;
62679;SDS011;68213;40.528;44.712;2023-04-24T02:09:00;10.77;;;3.70;;
62679;SDS011;68213;40.528;44.712;2023-04-24T02:10:03;9.52;;;3.28;;
62679;SDS011;68213;40.528;44.712;2023-04-24T02:11:05;7.63;;;3.38;;
62679;SDS011;68213;40.528;44.712;2023-04-24T02:12:06;11.82;;;3.90;;
62679;SDS011;68213;40.528;44.712;2023-04-24T02:13:06;10.77;;;3.92;;
62679;SDS011;68213;40.528;44.712;2023-04-24T02:14:07;8.38;;;3.80;;
62679;SDS011;68213;40.528;44.712;2023-04-24T02:15:08;14.48;;;4.13;;
62679;SDS011;68213;40.528;44.712;2023-04-24T02:16:09;9.32;;;4.10;;
62679;SDS011;68213;40.528;44.712;2023-04-24T02:17:30;11.95;;;4.00;;
62679;SDS011;68213;40.528;44.712;2023-04-24T02:18:31;9.57;;;4.40;;
62679;SDS011;68213;40.528;44.712;2023-04-24T02:19:32;9.52;;;4.45;;
62679;SDS011;68213;40.528;44.712;2023-04-24T02:20:33;10.07;;;4.35;;
62679;SDS011;68213;40.528;44.712;2023-04-24T02:21:37;9.77;;;4.18;;
62679;SDS011;68213;40.528;44.712;2023-04-24T02:22:37;13.25;;;4.20;;
62679;SDS011;68213;40.528;44.712;2023-04-24T02:23:38;9.35;;;4.47;;
62679;SDS011;68213;40.528;44.712;2023-04-24T02:24:39;9.52;;;4.18;;
62679;SDS011;68213;40.528;44.712;2023-04-24T02:25:40;9.98;;;3.95;;
62679;SDS011;68213;40.528;44.712;2023-04-24T02:26:40;10.32;;;4.15;;
62679;SDS011;68213;40.528;44.712;2023-04-24T02:27:41;10.48;;;4.60;;
62679;SDS011;68213;40.528;44.712;2023-04-24T02:28:42;11.57;;;4.30;;
62679;SDS011;68213;40.528;44.712;2023-04-24T02:29:43;10.60;;;4.22;;
62679;SDS011;68213;40.528;44.712;2023-04-24T02:30:45;10.88;;;4.28;;
62679;SDS011;68213;40.528;44.712;2023-04-24T02:31:45;13.43;;;4.82;;
62679;SDS011;68213;40.528;44.712;2023-04-24T02:32:46;12.82;;;4.85;;
62679;SDS011;68213;40.528;44.712;2023-04-24T02:33:47;11.30;;;4.90;;
62679;SDS011;68213;40.528;44.712;2023-04-24T02:34:48;8.70;;;4.22;;
62679;SDS011;68213;40.528;44.712;2023-04-24T02:35:49;11.25;;;5.20;;
62679;SDS011;68213;40.528;44.712;2023-04-24T02:36:51;9.77;;;4.45;;
62679;SDS011;68213;40.528;44.712;2023-04-24T02:37:54;7.57;;;4.20;;
62679;SDS011;68213;40.528;44.712;2023-04-24T02:38:54;9.90;;;4.55;;
62679;SDS011;68213;40.528;44.712;2023-04-24T02:39:55;12.52;;;5.10;;
62679;SDS011;68213;40.528;44.712;2023-04-24T02:40:56;8.88;;;4.93;;
62679;SDS011;68213;40.528;44.712;2023-04-24T02:41:56;10.32;;;4.38;;
62679;SDS011;68213;40.528;44.712;2023-04-24T02:43:00;11.13;;;5.43;;
62679;SDS011;68213;40.528;44.712;2023-04-24T02:44:01;14.30;;;5.38;;
62679;SDS011;68213;40.528;44.712;2023-04-24T02:45:02;12.18;;;4.45;;
62679;SDS011;68213;40.528;44.712;2023-04-24T02:46:05;16.75;;;5.30;;
62679;SDS011;68213;40.528;44.712;2023-04-24T02:47:05;12.93;;;5.18;;
62679;SDS011;68213;40.528;44.712;2023-04-24T02:48:07;11.80;;;5.00;;
62679;SDS011;68213;40.528;44.712;2023-04-24T02:49:08;10.65;;;4.50;;
62679;SDS011;68213;40.528;44.712;2023-04-24T02:50:09;9.45;;;4.78;;
62679;SDS011;68213;40.528;44.712;2023-04-24T02:51:10;10.27;;;4.68;;
62679;SDS011;68213;40.528;44.712;2023-04-24T02:52:10;10.98;;;5.00;;
62679;SDS011;68213;40.528;44.712;2023-04-24T02:53:11;8.90;;;4.78;;
62679;SDS011;68213;40.528;44.712;2023-04-24T02:54:12;8.75;;;4.82;;
62679;SDS011;68213;40.528;44.712;2023-04-24T02:55:12;10.32;;;4.72;;
62679;SDS011;68213;40.528;44.712;2023-04-24T02:56:13;9.98;;;4.85;;
62679;SDS011;68213;40.528;44.712;2023-04-24T02:57:14;10.30;;;4.03;;
62679;SDS011;68213;40.528;44.712;2023-04-24T02:58:15;8.10;;;5.07;;
62679;SDS011;68213;40.528;44.712;2023-04-24T02:59:16;13.77;;;5.20;;
62679;SDS011;68213;40.528;44.712;2023-04-24T03:00:16;10.10;;;5.20;;
62679;SDS011;68213;40.528;44.712;2023-04-24T03:01:17;8.60;;;4.70;;
62679;SDS011;68213;40.528;44.712;2023-04-24T03:02:18;14.15;;;4.30;;
62679;SDS011;68213;40.528;44.712;2023-04-24T03:03:19;11.10;;;4.53;;
62679;SDS011;68213;40.528;44.712;2023-04-24T03:04:20;10.07;;;4.50;;
62679;SDS011;68213;40.528;44.712;2023-04-24T03:05:20;13.43;;;4.43;;
62679;SDS011;68213;40.528;44.712;2023-04-24T03:06:21;10.57;;;4.13;;
62679;SDS011;68213;40.528;44.712;2023-04-24T03:07:23;14.73;;;4.63;;
62679;SDS011;68213;40.528;44.712;2023-04-24T03:08:26;14.43;;;4.30;;
62679;SDS011;68213;40.528;44.712;2023-04-24T03:09:27;10.05;;;4.80;;
62679;SDS011;68213;40.528;44.712;2023-04-24T03:10:27;14.00;;;5.03;;
62679;SDS011;68213;40.528;44.712;2023-04-24T03:11:28;9.32;;;4.60;;
62679;SDS011;68213;40.528;44.712;2023-04-24T03:12:29;9.45;;;4.75;;
62679;SDS011;68213;40.528;44.712;2023-04-24T03:13:29;17.52;;;5.05;;
62679;SDS011;68213;40.528;44.712;2023-04-24T03:14:30;10.60;;;4.75;;
62679;SDS011;68213;40.528;44.712;2023-04-24T03:15:31;11.15;;;4.63;;
62679;SDS011;68213;40.528;44.712;2023-04-24T03:16:32;12.43;;;4.88;;
62679;SDS011;68213;40.528;44.712;2023-04-24T03:17:33;11.27;;;4.53;;
62679;SDS011;68213;40.528;44.712;2023-04-24T03:18:33;13.30;;;4.55;;
62679;SDS011;68213;40.528;44.712;2023-04-24T03:19:34;9.65;;;4.65;;
62679;SDS011;68213;40.528;44.712;2023-04-24T03:20:35;9.43;;;4.00;;
62679;SDS011;68213;40.528;44.712;2023-04-24T03:21:37;8.10;;;3.95;;
62679;SDS011;68213;40.528;44.712;2023-04-24T03:22:41;16.95;;;4.20;;
62679;SDS011;68213;40.528;44.712;2023-04-24T03:23:42;11.35;;;4.00;;
62679;SDS011;68213;40.528;44.712;2023-04-24T03:24:42;12.35;;;3.90;;
62679;SDS011;68213;40.528;44.712;2023-04-24T03:25:43;14.02;;;4.00;;
62679;SDS011;68213;40.528;44.712;2023-04-24T03:26:44;10.50;;;3.72;;
62679;SDS011;68213;40.528;44.712;2023-04-24T03:27:44;9.70;;;4.03;;
62679;SDS011;68213;40.528;44.712;2023-04-24T03:28:45;9.48;;;3.40;;
62679;SDS011;68213;40.528;44.712;2023-04-24T03:29:47;13.05;;;3.50;;
62679;SDS011;68213;40.528;44.712;2023-04-24T03:30:48;12.43;;;3.92;;
62679;SDS011;68213;40.528;44.712;2023-04-24T03:31:51;9.98;;;3.63;;
62679;SDS011;68213;40.528;44.712;2023-04-24T03:32:52;14.32;;;3.85;;
62679;SDS011;68213;40.528;44.712;2023-04-24T03:33:53;7.13;;;2.92;;
62679;SDS011;68213;40.528;44.712;2023-04-24T03:34:54;13.55;;;3.53;;
62679;SDS011;68213;40.528;44.712;2023-04-24T03:35:54;11.25;;;4.00;;
62679;SDS011;68213;40.528;44.712;2023-04-24T03:36:55;12.07;;;3.75;;
62679;SDS011;68213;40.528;44.712;2023-04-24T03:37:56;10.63;;;3.75;;
62679;SDS011;68213;40.528;44.712;2023-04-24T03:38:56;10.55;;;4.10;;
62679;SDS011;68213;40.528;44.712;2023-04-24T03:39:57;13.02;;;3.50;;
62679;SDS011;68213;40.528;44.712;2023-04-24T03:40:58;12.07;;;3.75;;
62679;SDS011;68213;40.528;44.712;2023-04-24T03:41:58;10.02;;;3.10;;
62679;SDS011;68213;40.528;44.712;2023-04-24T03:43:00;14.07;;;3.60;;
62679;SDS011;68213;40.528;44.712;2023-04-24T03:44:01;14.43;;;4.07;;
62679;SDS011;68213;40.528;44.712;2023-04-24T03:45:01;10.18;;;3.70;;
62679;SDS011;68213;40.528;44.712;2023-04-24T03:46:03;9.82;;;3.63;;
62679;SDS011;68213;40.528;44.712;2023-04-24T03:47:04;13.25;;;2.90;;
62679;SDS011;68213;40.528;44.712;2023-04-24T03:48:05;12.05;;;2.92;;
62679;SDS011;68213;40.528;44.712;2023-04-24T03:49:06;7.22;;;2.75;;
62679;SDS011;68213;40.528;44.712;2023-04-24T03:50:07;10.90;;;3.08;;
62679;SDS011;68213;40.528;44.712;2023-04-24T03:51:08;9.25;;;2.92;;
62679;SDS011;68213;40.528;44.712;2023-04-24T03:52:08;12.98;;;3.40;;
62679;SDS011;68213;40.528;44.712;2023-04-24T03:53:09;10.52;;;3.17;;
62679;SDS011;68213;40.528;44.712;2023-04-24T03:54:10;13.77;;;3.80;;
62679;SDS011;68213;40.528;44.712;2023-04-24T03:55:11;11.13;;;3.30;;
62679;SDS011;68213;40.528;44.712;2023-04-24T03:56:13;9.52;;;3.35;;
62679;SDS011;68213;40.528;44.712;2023-04-24T03:57:14;8.57;;;3.08;;
62679;SDS011;68213;40.528;44.712;2023-04-24T03:58:14;9.30;;;3.20;;
62679;SDS011;68213;40.528;44.712;2023-04-24T03:59:16;8.38;;;3.60;;
62679;SDS011;68213;40.528;44.712;2023-04-24T04:00:16;8.63;;;3.03;;
62679;SDS011;68213;40.528;44.712;2023-04-24T04:01:18;8.55;;;3.08;;
62679;SDS011;68213;40.528;44.712;2023-04-24T04:02:21;9.98;;;2.92;;
62679;SDS011;68213;40.528;44.712;2023-04-24T04:03:21;9.63;;;3.13;;
62679;SDS011;68213;40.528;44.712;2023-04-24T04:04:22;10.43;;;3.05;;
62679;SDS011;68213;40.528;44.712;2023-04-24T04:05:23;7.22;;;3.03;;
62679;SDS011;68213;40.528;44.712;2023-04-24T04:06:24;9.95;;;3.22;;
62679;SDS011;68213;40.528;44.712;2023-04-24T04:07:27;11.00;;;3.10;;
62679;SDS011;68213;40.528;44.712;2023-04-24T04:08:27;8.85;;;3.40;;
62679;SDS011;68213;40.528;44.712;2023-04-24T04:09:28;6.38;;;2.60;;
62679;SDS011;68213;40.528;44.712;2023-04-24T04:10:29;8.68;;;2.50;;
62679;SDS011;68213;40.528;44.712;2023-04-24T04:11:31;7.75;;;2.60;;
62679;SDS011;68213;40.528;44.712;2023-04-24T04:12:34;6.15;;;2.95;;
62679;SDS011;68213;40.528;44.712;2023-04-24T04:13:34;12.85;;;2.72;;
62679;SDS011;68213;40.528;44.712;2023-04-24T04:14:35;9.55;;;3.17;;
62679;SDS011;68213;40.528;44.712;2023-04-24T04:15:36;7.88;;;2.88;;
62679;SDS011;68213;40.528;44.712;2023-04-24T04:16:36;6.97;;;2.53;;
62679;SDS011;68213;40.528;44.712;2023-04-24T04:17:37;9.05;;;3.28;;
62679;SDS011;68213;40.528;44.712;2023-04-24T04:18:38;9.48;;;3.33;;
62679;SDS011;68213;40.528;44.712;2023-04-24T04:19:39;6.35;;;2.78;;
62679;SDS011;68213;40.528;44.712;2023-04-24T04:20:39;9.88;;;3.22;;
62679;SDS011;68213;40.528;44.712;2023-04-24T04:21:40;6.63;;;3.00;;
62679;SDS011;68213;40.528;44.712;2023-04-24T04:22:41;7.55;;;3.03;;
62679;SDS011;68213;40.528;44.712;2023-04-24T04:23:41;9.48;;;3.00;;
62679;SDS011;68213;40.528;44.712;2023-04-24T04:24:42;5.32;;;2.78;;
62679;SDS011;68213;40.528;44.712;2023-04-24T04:25:43;10.25;;;3.00;;
62679;SDS011;68213;40.528;44.712;2023-04-24T04:26:44;13.93;;;3.30;;
62679;SDS011;68213;40.528;44.712;2023-04-24T04:27:47;10.80;;;3.33;;
62679;SDS011;68213;40.528;44.712;2023-04-24T04:28:48;8.65;;;3.72;;
62679;SDS011;68213;40.528;44.712;2023-04-24T04:29:50;13.18;;;4.05;;
62679;SDS011;68213;40.528;44.712;2023-04-24T04:30:51;8.50;;;3.22;;
62679;SDS011;68213;40.528;44.712;2023-04-24T04:31:55;8.57;;;4.00;;
62679;SDS011;68213;40.528;44.712;2023-04-24T04:32:56;13.38;;;4.00;;
62679;SDS011;68213;40.528;44.712;2023-04-24T04:33:56;8.55;;;3.67;;
62679;SDS011;68213;40.528;44.712;2023-04-24T04:34:57;11.60;;;3.35;;
62679;SDS011;68213;40.528;44.712;2023-04-24T04:35:58;7.28;;;3.97;;
62679;SDS011;68213;40.528;44.712;2023-04-24T04:36:58;12.63;;;4.18;;
62679;SDS011;68213;40.528;44.712;2023-04-24T04:38:02;12.27;;;4.38;;
62679;SDS011;68213;40.528;44.712;2023-04-24T04:39:03;13.25;;;4.70;;
62679;SDS011;68213;40.528;44.712;2023-04-24T04:40:04;10.07;;;4.70;;
62679;SDS011;68213;40.528;44.712;2023-04-24T04:41:11;12.80;;;4.13;;
62679;SDS011;68213;40.528;44.712;2023-04-24T04:42:12;13.57;;;4.70;;
62679;SDS011;68213;40.528;44.712;2023-04-24T04:43:14;13.23;;;4.72;;
62679;SDS011;68213;40.528;44.712;2023-04-24T04:44:16;18.58;;;4.57;;
62679;SDS011;68213;40.528;44.712;2023-04-24T04:45:17;8.63;;;4.88;;
62679;SDS011;68213;40.528;44.712;2023-04-24T04:46:18;10.63;;;4.55;;
62679;SDS011;68213;40.528;44.712;2023-04-24T04:47:20;13.73;;;4.63;;
62679;SDS011;68213;40.528;44.712;2023-04-24T04:48:24;11.05;;;4.28;;
62679;SDS011;68213;40.528;44.712;2023-04-24T04:49:25;15.60;;;4.55;;
62679;SDS011;68213;40.528;44.712;2023-04-24T04:50:29;8.80;;;4.30;;
62679;SDS011;68213;40.528;44.712;2023-04-24T04:51:30;11.23;;;4.10;;
62679;SDS011;68213;40.528;44.712;2023-04-24T04:52:31;8.15;;;4.28;;
62679;SDS011;68213;40.528;44.712;2023-04-24T04:53:32;7.22;;;3.40;;
62679;SDS011;68213;40.528;44.712;2023-04-24T04:54:32;10.70;;;4.22;;
62679;SDS011;68213;40.528;44.712;2023-04-24T04:55:33;8.18;;;3.63;;
62679;SDS011;68213;40.528;44.712;2023-04-24T04:56:34;11.50;;;3.67;;
62679;SDS011;68213;40.528;44.712;2023-04-24T04:57:34;8.75;;;3.25;;
62679;SDS011;68213;40.528;44.712;2023-04-24T04:58:35;8.57;;;3.40;;
62679;SDS011;68213;40.528;44.712;2023-04-24T04:59:36;11.73;;;4.10;;
62679;SDS011;68213;40.528;44.712;2023-04-24T05:00:37;9.57;;;3.45;;
62679;SDS011;68213;40.528;44.712;2023-04-24T05:01:38;8.13;;;3.53;;
62679;SDS011;68213;40.528;44.712;2023-04-24T05:02:38;10.45;;;3.70;;
62679;SDS011;68213;40.528;44.712;2023-04-24T05:03:40;10.95;;;4.03;;
62679;SDS011;68213;40.528;44.712;2023-04-24T05:04:41;7.68;;;3.35;;
62679;SDS011;68213;40.528;44.712;2023-04-24T05:05:42;15.25;;;3.60;;
62679;SDS011;68213;40.528;44.712;2023-04-24T05:06:43;11.50;;;2.92;;
62679;SDS011;68213;40.528;44.712;2023-04-24T05:07:44;9.50;;;2.60;;
62679;SDS011;68213;40.528;44.712;2023-04-24T05:08:44;9.23;;;2.97;;
62679;SDS011;68213;40.528;44.712;2023-04-24T05:09:45;10.50;;;2.95;;
62679;SDS011;68213;40.528;44.712;2023-04-24T05:10:46;7.57;;;2.78;;
62679;SDS011;68213;40.528;44.712;2023-04-24T05:11:47;5.93;;;2.38;;
62679;SDS011;68213;40.528;44.712;2023-04-24T05:12:47;7.47;;;2.97;;
62679;SDS011;68213;40.528;44.712;2023-04-24T05:13:49;9.15;;;3.03;;
62679;SDS011;68213;40.528;44.712;2023-04-24T05:14:50;8.32;;;3.25;;
62679;SDS011;68213;40.528;44.712;2023-04-24T05:15:50;10.25;;;2.92;;
62679;SDS011;68213;40.528;44.712;2023-04-24T05:16:51;7.78;;;2.80;;
62679;SDS011;68213;40.528;44.712;2023-04-24T05:17:52;10.30;;;2.90;;
62679;SDS011;68213;40.528;44.712;2023-04-24T05:18:53;8.15;;;2.42;;
62679;SDS011;68213;40.528;44.712;2023-04-24T05:19:54;6.82;;;2.50;;
62679;SDS011;68213;40.528;44.712;2023-04-24T05:20:55;11.40;;;2.58;;
62679;SDS011;68213;40.528;44.712;2023-04-24T05:21:56;6.90;;;2.72;;
62679;SDS011;68213;40.528;44.712;2023-04-24T05:22:57;11.07;;;3.03;;
62679;SDS011;68213;40.528;44.712;2023-04-24T05:23:58;7.60;;;3.17;;
62679;SDS011;68213;40.528;44.712;2023-04-24T05:24:59;11.27;;;2.67;;
62679;SDS011;68213;40.528;44.712;2023-04-24T05:26:00;9.05;;;2.58;;
62679;SDS011;68213;40.528;44.712;2023-04-24T05:27:02;6.80;;;2.88;;
62679;SDS011;68213;40.528;44.712;2023-04-24T05:28:04;9.15;;;2.60;;
62679;SDS011;68213;40.528;44.712;2023-04-24T05:29:05;8.70;;;3.00;;
62679;SDS011;68213;40.528;44.712;2023-04-24T05:30:07;8.73;;;2.88;;
62679;SDS011;68213;40.528;44.712;2023-04-24T05:31:08;9.77;;;3.15;;
62679;SDS011;68213;40.528;44.712;2023-04-24T05:32:09;11.35;;;2.97;;
62679;SDS011;68213;40.528;44.712;2023-04-24T05:33:12;6.95;;;2.33;;
62679;SDS011;68213;40.528;44.712;2023-04-24T05:34:14;9.80;;;2.70;;
62679;SDS011;68213;40.528;44.712;2023-04-24T05:35:16;14.77;;;2.70;;
62679;SDS011;68213;40.528;44.712;2023-04-24T05:36:17;8.75;;;2.53;;
62679;SDS011;68213;40.528;44.712;2023-04-24T05:37:17;8.82;;;3.10;;
62679;SDS011;68213;40.528;44.712;2023-04-24T05:38:18;8.05;;;2.47;;
62679;SDS011;68213;40.528;44.712;2023-04-24T05:39:19;6.90;;;2.03;;
62679;SDS011;68213;40.528;44.712;2023-04-24T05:40:20;12.20;;;3.05;;
62679;SDS011;68213;40.528;44.712;2023-04-24T05:41:21;8.13;;;2.75;;
62679;SDS011;68213;40.528;44.712;2023-04-24T05:42:22;10.25;;;2.30;;
62679;SDS011;68213;40.528;44.712;2023-04-24T05:43:23;9.02;;;2.50;;
62679;SDS011;68213;40.528;44.712;2023-04-24T05:44:24;6.72;;;1.98;;
62679;SDS011;68213;40.528;44.712;2023-04-24T05:45:25;7.22;;;2.10;;
62679;SDS011;68213;40.528;44.712;2023-04-24T05:46:25;6.85;;;1.70;;
62679;SDS011;68213;40.528;44.712;2023-04-24T05:47:26;6.13;;;2.50;;
62679;SDS011;68213;40.528;44.712;2023-04-24T05:48:27;9.52;;;2.00;;
62679;SDS011;68213;40.528;44.712;2023-04-24T05:49:28;7.72;;;2.25;;
62679;SDS011;68213;40.528;44.712;2023-04-24T05:50:28;7.38;;;2.10;;
62679;SDS011;68213;40.528;44.712;2023-04-24T05:51:29;6.30;;;1.92;;
62679;SDS011;68213;40.528;44.712;2023-04-24T05:52:30;7.05;;;2.10;;
62679;SDS011;68213;40.528;44.712;2023-04-24T05:53:31;9.38;;;1.95;;
62679;SDS011;68213;40.528;44.712;2023-04-24T05:54:31;7.97;;;1.95;;
62679;SDS011;68213;40.528;44.712;2023-04-24T05:55:36;9.90;;;2.28;;
62679;SDS011;68213;40.528;44.712;2023-04-24T05:56:37;4.72;;;1.67;;
62679;SDS011;68213;40.528;44.712;2023-04-24T05:57:38;9.40;;;2.00;;
62679;SDS011;68213;40.528;44.712;2023-04-24T05:58:39;9.70;;;1.85;;
62679;SDS011;68213;40.528;44.712;2023-04-24T05:59:40;8.15;;;1.77;;
62679;SDS011;68213;40.528;44.712;2023-04-24T06:00:41;5.40;;;2.05;;
62679;SDS011;68213;40.528;44.712;2023-04-24T06:01:42;8.32;;;1.80;;
62679;SDS011;68213;40.528;44.712;2023-04-24T06:02:43;5.43;;;1.60;;